Time;durP1;ratioP1;P1;durP2;ratioP2;P2;SDS_P1;SDS_P2;PMS_P1;PMS_P2;Temp;Humidity;BMP_temperature;BMP_pressure;BME280_temperature;BME280_humidity;BME280_pressure;Samples;Min_cycle;Max_cycle;Signal;HPM_P1;HPM_P2
2022/04/23 00:00:38;;;;;;;13.40;9.63;;;11.90;45.20;;;;;;5004954;28;25076;-69
2022/04/23 00:03:04;;;;;;;16.95;11.15;;;12.00;44.80;;;;;;5007580;28;25063;-69
2022/04/23 00:05:29;;;;;;;14.65;10.85;;;12.00;44.60;;;;;;5007515;28;25076;-68
2022/04/23 00:07:55;;;;;;;18.73;10.50;;;12.00;44.60;;;;;;5007580;28;25077;-72
2022/04/23 00:10:22;;;;;;;13.32;10.80;;;12.00;44.50;;;;;;5008097;28;25105;-68
2022/04/23 00:12:48;;;;;;;12.52;9.80;;;11.90;45.10;;;;;;5005736;28;25105;-70
2022/04/23 00:15:13;;;;;;;12.98;9.73;;;11.90;45.90;;;;;;5005815;28;25159;-72
2022/04/23 00:17:39;;;;;;;14.15;9.80;;;11.80;46.30;;;;;;5005977;28;25062;-70
2022/04/23 00:20:05;;;;;;;15.23;10.15;;;11.80;46.40;;;;;;5005576;28;25148;-70
2022/04/23 00:22:31;;;;;;;14.73;9.88;;;11.70;47.30;;;;;;5003286;28;25051;-69
2022/04/23 00:24:57;;;;;;;13.77;10.48;;;11.60;48.40;;;;;;5003854;28;25106;-71
2022/04/23 00:27:23;;;;;;;16.00;10.57;;;11.60;48.70;;;;;;5002518;28;25063;-69
2022/04/23 00:29:49;;;;;;;11.95;9.63;;;11.60;49.40;;;;;;5001534;28;25067;-69
2022/04/23 00:32:14;;;;;;;13.30;10.45;;;11.50;50.10;;;;;;5003254;28;25068;-70
2022/04/23 00:34:40;;;;;;;12.15;9.82;;;11.50;50.60;;;;;;5003373;28;25108;-69
2022/04/23 00:37:05;;;;;;;15.68;9.52;;;11.40;50.30;;;;;;5004728;28;25067;-69
2022/04/23 00:39:32;;;;;;;15.15;10.32;;;11.40;50.90;;;;;;5003127;28;25133;-71
2022/04/23 00:42:00;;;;;;;13.27;9.90;;;11.30;51.70;;;;;;5002769;28;25069;-67
2022/04/23 00:44:26;;;;;;;14.75;10.50;;;11.30;52.40;;;;;;5003830;28;25066;-71
2022/04/23 00:46:52;;;;;;;14.82;10.38;;;11.30;53.70;;;;;;5004644;28;25080;-69
2022/04/23 00:49:17;;;;;;;15.68;10.20;;;11.30;53.00;;;;;;5006191;28;25145;-69
2022/04/23 00:51:43;;;;;;;16.95;11.05;;;11.20;53.80;;;;;;5005763;28;25163;-71
2022/04/23 00:54:10;;;;;;;17.42;11.15;;;11.20;54.40;;;;;;5005429;28;25084;-68
2022/04/23 00:56:37;;;;;;;14.13;11.57;;;11.20;54.60;;;;;;5004764;28;25064;-70
2022/04/23 00:59:11;;;;;;;14.88;11.05;;;11.20;55.00;;;;;;5004532;28;25075;-70
2022/04/23 01:01:40;;;;;;;24.23;12.25;;;11.20;55.30;;;;;;5005507;28;25074;-69
2022/04/23 01:04:06;;;;;;;16.80;12.13;;;11.20;55.50;;;;;;5005432;28;25059;-71
2022/04/23 01:06:34;;;;;;;15.73;12.20;;;11.10;55.50;;;;;;5005518;28;25061;-69
2022/04/23 01:09:05;;;;;;;16.52;12.20;;;11.10;55.80;;;;;;5003386;28;25051;-71
2022/04/23 01:11:32;;;;;;;16.58;12.68;;;11.10;56.20;;;;;;5005558;28;25070;-72
2022/04/23 01:13:58;;;;;;;17.55;12.45;;;11.10;56.30;;;;;;5005013;28;25069;-70
2022/04/23 01:16:23;;;;;;;18.17;12.98;;;11.10;56.60;;;;;;5020145;28;25144;-71
2022/04/23 01:18:49;;;;;;;16.92;12.88;;;11.10;56.70;;;;;;5004634;28;25073;-71
2022/04/23 01:21:14;;;;;;;17.17;12.60;;;11.10;57.60;;;;;;5005030;28;25071;-69
2022/04/23 01:23:42;;;;;;;17.92;13.98;;;11.10;58.10;;;;;;5003534;28;25078;-70
2022/04/23 01:26:08;;;;;;;20.63;13.85;;;11.10;57.90;;;;;;5006059;28;25067;-71
2022/04/23 01:28:37;;;;;;;19.30;14.32;;;11.10;58.30;;;;;;5007297;28;25052;-71
2022/04/23 01:31:04;;;;;;;21.05;15.65;;;11.10;58.60;;;;;;5006931;28;25079;-70
2022/04/23 01:33:32;;;;;;;19.50;14.73;;;11.10;58.60;;;;;;5007223;28;25076;-70
2022/04/23 01:35:57;;;;;;;21.23;15.50;;;11.10;58.60;;;;;;5016972;28;25073;-71
2022/04/23 01:38:23;;;;;;;18.63;14.98;;;11.20;58.60;;;;;;5023622;28;25112;-71
2022/04/23 01:40:49;;;;;;;20.25;14.75;;;11.10;58.80;;;;;;5022203;28;25076;-72
2022/04/23 01:43:15;;;;;;;20.02;15.02;;;11.10;58.90;;;;;;5011995;28;25095;-69
2022/04/23 01:45:40;;;;;;;21.50;16.00;;;11.10;58.80;;;;;;5005136;28;25094;-71
2022/04/23 01:48:06;;;;;;;17.27;14.38;;;11.10;59.60;;;;;;5021684;28;25083;-71
2022/04/23 01:50:32;;;;;;;18.67;15.40;;;11.10;59.80;;;;;;5006468;28;25078;-69
2022/04/23 01:52:58;;;;;;;19.52;15.27;;;11.10;60.30;;;;;;5007274;28;25154;-69
2022/04/23 01:55:24;;;;;;;24.90;15.88;;;11.10;60.40;;;;;;5007594;28;25077;-69
2022/04/23 01:57:49;;;;;;;21.55;16.63;;;11.10;60.80;;;;;;5011220;28;25078;-72
2022/04/23 02:00:15;;;;;;;22.08;16.65;;;11.10;61.30;;;;;;5010388;28;25068;-69
2022/04/23 02:02:41;;;;;;;25.08;17.75;;;11.00;61.90;;;;;;5010188;28;25128;-71
2022/04/23 02:05:08;;;;;;;22.17;16.38;;;11.00;62.40;;;;;;5010436;28;25138;-70
2022/04/23 02:07:37;;;;;;;22.50;17.30;;;11.10;63.10;;;;;;5010866;28;25074;-69
2022/04/23 02:10:08;;;;;;;23.83;18.00;;;11.10;63.30;;;;;;5009427;28;25081;-71
2022/04/23 02:12:33;;;;;;;23.63;19.02;;;11.10;63.50;;;;;;5009333;28;25060;-70
2022/04/23 02:14:59;;;;;;;27.00;18.60;;;11.10;63.20;;;;;;5010385;28;25058;-69
2022/04/23 02:17:39;;;;;;;28.40;19.30;;;11.10;63.90;;;;;;5010037;28;25082;-71
2022/04/23 02:20:08;;;;;;;26.38;19.02;;;11.10;64.00;;;;;;5010513;28;25056;-69
2022/04/23 02:22:34;;;;;;;30.30;19.83;;;11.00;65.10;;;;;;5009832;28;25072;-70
2022/04/23 02:25:00;;;;;;;25.23;20.48;;;11.00;65.30;;;;;;5010811;28;25076;-68
2022/04/23 02:27:27;;;;;;;25.23;20.45;;;11.00;66.20;;;;;;5015410;28;25110;-71
2022/04/23 02:29:54;;;;;;;27.58;20.48;;;11.00;66.70;;;;;;5016357;28;25149;-71
2022/04/23 02:32:20;;;;;;;24.33;20.33;;;11.00;67.10;;;;;;5029140;28;25047;-71
2022/04/23 02:34:45;;;;;;;28.20;20.42;;;11.00;67.00;;;;;;5027065;28;25126;-71
2022/04/23 02:37:11;;;;;;;30.48;20.55;;;11.00;67.40;;;;;;5010999;28;25191;-68
2022/04/23 02:39:38;;;;;;;28.15;21.27;;;11.00;67.10;;;;;;5009671;28;25190;-71
2022/04/23 02:42:05;;;;;;;27.88;21.95;;;11.00;68.00;;;;;;5009294;28;25056;-70
2022/04/23 02:44:31;;;;;;;28.85;21.27;;;11.00;68.50;;;;;;5009344;28;25071;-70
2022/04/23 02:46:56;;;;;;;27.88;21.70;;;11.00;68.90;;;;;;5008477;28;25134;-70
2022/04/23 02:49:22;;;;;;;31.70;22.83;;;11.00;69.40;;;;;;5008830;28;25063;-69
2022/04/23 02:51:48;;;;;;;29.45;22.73;;;11.00;70.10;;;;;;5008397;28;25077;-69
2022/04/23 02:54:15;;;;;;;32.90;21.40;;;11.00;71.10;;;;;;5007503;28;25063;-70
2022/04/23 02:56:41;;;;;;;31.17;22.85;;;10.90;72.10;;;;;;5008694;28;25131;-73
2022/04/23 02:59:06;;;;;;;29.13;22.50;;;11.00;72.40;;;;;;5009091;28;25137;-69
2022/04/23 03:01:34;;;;;;;33.58;24.60;;;11.00;73.50;;;;;;5009295;28;25077;-68
2022/04/23 03:04:00;;;;;;;29.23;23.67;;;11.00;74.10;;;;;;5008263;28;25145;-70
2022/04/23 03:06:29;;;;;;;31.92;25.05;;;10.90;75.50;;;;;;5007045;28;25058;-70
2022/04/23 03:09:02;;;;;;;31.13;24.48;;;10.90;75.90;;;;;;5007543;28;25085;-72
2022/04/23 03:11:31;;;;;;;29.42;22.80;;;11.00;76.00;;;;;;5021846;28;25114;-72
2022/04/23 03:14:00;;;;;;;34.67;25.85;;;10.90;77.00;;;;;;5007914;28;25128;-70
2022/04/23 03:16:29;;;;;;;31.63;24.98;;;10.90;78.10;;;;;;5008533;28;25080;-71
2022/04/23 03:18:56;;;;;;;31.08;25.90;;;10.90;79.00;;;;;;5007356;28;25149;-71
2022/04/23 03:21:22;;;;;;;36.60;26.23;;;10.90;80.40;;;;;;5007523;28;25112;-72
2022/04/23 03:23:48;;;;;;;36.25;25.35;;;10.90;80.40;;;;;;5007788;28;25107;-71
2022/04/23 03:26:13;;;;;;;33.70;26.77;;;10.90;81.00;;;;;;5005755;28;25066;-70
2022/04/23 03:28:39;;;;;;;34.22;26.70;;;10.90;82.30;;;;;;5007254;28;25156;-70
2022/04/23 03:31:05;;;;;;;39.83;27.80;;;10.90;82.40;;;;;;5008838;28;25074;-69
2022/04/23 03:33:30;;;;;;;35.80;27.08;;;10.90;82.60;;;;;;5008598;28;25171;-70
2022/04/23 03:35:56;;;;;;;34.38;26.10;;;10.90;82.50;;;;;;5005702;28;25106;-70
2022/04/23 03:38:22;;;;;;;35.80;28.08;;;10.90;83.50;;;;;;5007070;28;25143;-68
2022/04/23 03:40:53;;;;;;;35.28;28.25;;;10.90;83.90;;;;;;5007856;28;25075;-69
2022/04/23 03:43:19;;;;;;;37.08;28.35;;;10.80;84.40;;;;;;5008228;28;25055;-68
2022/04/23 03:45:45;;;;;;;35.85;27.75;;;10.90;84.20;;;;;;5008739;28;25094;-69
2022/04/23 03:48:12;;;;;;;36.63;27.33;;;10.90;84.80;;;;;;5006473;28;25124;-70
2022/04/23 03:50:38;;;;;;;37.42;27.48;;;10.90;84.40;;;;;;5004705;28;25069;-70
2022/04/23 03:53:04;;;;;;;35.70;28.13;;;10.90;85.00;;;;;;5005327;28;25068;-71
2022/04/23 03:55:30;;;;;;;36.03;28.25;;;10.90;84.50;;;;;;5003628;28;25056;-71
2022/04/23 03:57:55;;;;;;;38.15;27.73;;;10.90;83.90;;;;;;5006139;28;24985;-69
2022/04/23 04:00:21;;;;;;;35.80;27.70;;;10.90;82.60;;;;;;5005416;28;25143;-69
2022/04/23 04:02:48;;;;;;;38.50;28.15;;;10.90;81.60;;;;;;5006252;28;25109;-71
2022/04/23 04:05:13;;;;;;;38.78;28.92;;;10.90;81.00;;;;;;5007154;28;25071;-71
2022/04/23 04:07:43;;;;;;;39.90;28.63;;;10.90;80.80;;;;;;5009438;28;25119;-71
2022/04/23 04:10:11;;;;;;;38.05;28.45;;;10.90;80.80;;;;;;5012665;28;25091;-69
2022/04/23 04:12:37;;;;;;;38.38;29.23;;;10.90;81.10;;;;;;5025972;28;25076;-71
2022/04/23 04:15:04;;;;;;;38.92;27.30;;;10.90;81.50;;;;;;5015163;28;25056;-70
2022/04/23 04:17:30;;;;;;;41.55;29.70;;;10.90;80.80;;;;;;5036856;28;25051;-70
2022/04/23 04:19:55;;;;;;;39.00;28.13;;;10.90;80.70;;;;;;5035581;28;25075;-70
2022/04/23 04:22:21;;;;;;;38.17;29.60;;;10.80;81.70;;;;;;5032515;28;25105;-69
2022/04/23 04:24:48;;;;;;;39.63;29.92;;;10.80;81.50;;;;;;5033555;28;25076;-72
2022/04/23 04:27:14;;;;;;;38.70;29.35;;;10.80;82.30;;;;;;5035052;28;25057;-72
2022/04/23 04:29:39;;;;;;;40.50;28.40;;;10.80;81.90;;;;;;5030781;28;25073;-71
2022/04/23 04:32:07;;;;;;;37.05;29.30;;;10.80;82.90;;;;;;5015668;28;25106;-69
2022/04/23 04:34:33;;;;;;;42.97;31.00;;;10.80;83.90;;;;;;5011559;28;25171;-69
2022/04/23 04:37:10;;;;;;;42.83;31.25;;;10.80;83.60;;;;;;5008461;28;25051;-68
2022/04/23 04:39:37;;;;;;;39.67;30.20;;;10.80;84.20;;;;;;5008242;28;25073;-68
2022/04/23 04:42:03;;;;;;;42.25;30.17;;;10.80;84.20;;;;;;5009754;28;25054;-71
2022/04/23 04:44:29;;;;;;;39.20;29.55;;;10.80;84.10;;;;;;5008760;28;25063;-71
2022/04/23 04:46:55;;;;;;;40.55;29.08;;;10.80;84.60;;;;;;5009621;28;25105;-71
2022/04/23 04:49:24;;;;;;;41.72;30.45;;;10.80;84.80;;;;;;5006723;28;25126;-70
2022/04/23 04:51:50;;;;;;;40.75;30.38;;;10.80;85.10;;;;;;5005385;28;25073;-70
2022/04/23 04:54:18;;;;;;;38.13;29.30;;;10.80;85.20;;;;;;5005493;28;25046;-74
2022/04/23 04:56:47;;;;;;;39.33;30.48;;;10.80;85.50;;;;;;5005019;28;25070;-70
2022/04/23 04:59:13;;;;;;;37.15;28.92;;;10.80;85.80;;;;;;5004488;28;25060;-69
2022/04/23 05:01:39;;;;;;;40.50;29.58;;;10.80;86.20;;;;;;5004679;28;25135;-71
2022/04/23 05:04:04;;;;;;;39.65;31.02;;;10.80;85.90;;;;;;5007943;28;25080;-69
2022/04/23 05:06:30;;;;;;;38.40;28.95;;;10.80;85.50;;;;;;5008965;28;25098;-70
2022/04/23 05:08:55;;;;;;;39.13;29.38;;;10.80;85.30;;;;;;5007747;28;25055;-69
2022/04/23 05:11:21;;;;;;;36.47;28.77;;;10.90;85.30;;;;;;5003377;28;25074;-70
2022/04/23 05:13:47;;;;;;;38.17;28.63;;;10.90;84.50;;;;;;5003756;28;25176;-70
2022/04/23 05:16:13;;;;;;;37.15;29.58;;;10.90;83.60;;;;;;5020204;28;25113;-68
2022/04/23 05:18:39;;;;;;;41.45;30.80;;;10.90;83.60;;;;;;5005513;28;25049;-71
2022/04/23 05:21:04;;;;;;;36.33;28.75;;;11.00;83.60;;;;;;5005271;28;25058;-70
2022/04/23 05:23:30;;;;;;;35.65;28.55;;;11.00;83.60;;;;;;5005972;28;25048;-70
2022/04/23 05:25:57;;;;;;;36.90;28.45;;;11.00;83.50;;;;;;5005073;28;25061;-69
2022/04/23 05:28:23;;;;;;;37.13;29.67;;;11.00;83.20;;;;;;5005555;28;25060;-71
2022/04/23 05:30:48;;;;;;;41.17;29.48;;;11.00;83.40;;;;;;5022928;28;25097;-72
2022/04/23 05:33:14;;;;;;;37.40;28.20;;;10.90;82.70;;;;;;5008233;28;25130;-69
2022/04/23 05:35:39;;;;;;;37.85;29.38;;;10.90;83.40;;;;;;5011230;28;25085;-70
2022/04/23 05:38:05;;;;;;;37.40;30.45;;;11.00;84.60;;;;;;5009836;28;25064;-71
2022/04/23 05:40:32;;;;;;;38.75;29.70;;;10.90;85.10;;;;;;5010839;28;25142;-70
2022/04/23 05:43:00;;;;;;;34.95;28.58;;;11.00;85.50;;;;;;5009398;28;25119;-69
2022/04/23 05:45:27;;;;;;;38.17;30.52;;;10.90;86.20;;;;;;5010666;28;25133;-73
2022/04/23 05:47:53;;;;;;;37.88;30.33;;;10.80;88.10;;;;;;5009303;28;25142;-70
2022/04/23 05:50:19;;;;;;;39.35;29.33;;;10.80;89.80;;;;;;5024534;28;25079;-70
2022/04/23 05:52:45;;;;;;;41.10;30.38;;;10.80;90.20;;;;;;5008368;28;25063;-69
2022/04/23 05:55:10;;;;;;;41.15;30.88;;;10.80;90.30;;;;;;5010874;28;25067;-72
2022/04/23 05:57:37;;;;;;;37.70;29.98;;;10.80;90.20;;;;;;5008005;28;25054;-70
2022/04/23 06:00:04;;;;;;;39.80;31.75;;;10.80;90.00;;;;;;5007692;28;25066;-72
2022/04/23 06:02:31;;;;;;;41.30;30.77;;;10.80;90.70;;;;;;5006896;28;25048;-71
2022/04/23 06:04:57;;;;;;;38.38;30.83;;;10.80;90.90;;;;;;5007096;28;25057;-71
2022/04/23 06:07:23;;;;;;;43.55;32.17;;;10.80;91.80;;;;;;5006908;28;25071;-71
2022/04/23 06:09:49;;;;;;;39.08;29.85;;;10.80;91.80;;;;;;5007891;28;25085;-69
2022/04/23 06:12:14;;;;;;;37.65;30.33;;;10.80;92.80;;;;;;5007290;28;25060;-71
2022/04/23 06:14:40;;;;;;;38.85;29.15;;;10.90;92.20;;;;;;5007306;28;25128;-71
2022/04/23 06:17:10;;;;;;;36.65;28.75;;;10.90;92.10;;;;;;5007476;28;25060;-72
2022/04/23 06:19:36;;;;;;;39.60;30.10;;;10.90;91.40;;;;;;5006490;28;25158;-70
2022/04/23 06:22:02;;;;;;;37.08;29.70;;;11.00;91.10;;;;;;5007754;28;25091;-69
2022/04/23 06:24:28;;;;;;;40.28;29.50;;;11.10;88.80;;;;;;5007022;28;25071;-69
2022/04/23 06:26:53;;;;;;;36.03;28.48;;;11.10;87.50;;;;;;5006605;28;25087;-69
2022/04/23 06:29:19;;;;;;;35.88;30.33;;;11.20;84.30;;;;;;5006664;28;25083;-70
2022/04/23 06:31:44;;;;;;;35.72;27.75;;;11.30;81.00;;;;;;5005664;28;25069;-70
2022/04/23 06:34:10;;;;;;;37.70;28.80;;;11.30;80.30;;;;;;5010987;28;25067;-68
2022/04/23 06:36:36;;;;;;;39.97;30.25;;;11.30;79.60;;;;;;5011605;28;25095;-72
2022/04/23 06:39:03;;;;;;;39.30;27.80;;;11.40;77.50;;;;;;5011830;28;25069;-71
2022/04/23 06:41:28;;;;;;;35.85;28.05;;;11.40;76.00;;;;;;5009037;28;25080;-73
2022/04/23 06:43:54;;;;;;;35.58;28.98;;;11.50;74.50;;;;;;5011734;28;25079;-70
2022/04/23 06:46:19;;;;;;;38.10;28.95;;;11.60;73.80;;;;;;5012378;28;25134;-71
2022/04/23 06:48:45;;;;;;;35.75;27.92;;;11.50;71.80;;;;;;5010344;28;25061;-70
2022/04/23 06:51:11;;;;;;;35.05;27.65;;;11.70;71.90;;;;;;5028629;28;25114;-72
2022/04/23 06:53:36;;;;;;;35.97;28.27;;;11.70;71.50;;;;;;5022137;28;25076;-74
2022/04/23 06:56:03;;;;;;;35.03;27.52;;;11.70;70.00;;;;;;5039540;28;25116;-70
2022/04/23 06:58:29;;;;;;;38.22;28.15;;;11.70;68.80;;;;;;5025695;28;25137;-71
2022/04/23 07:00:54;;;;;;;35.63;27.30;;;11.80;69.20;;;;;;5027037;28;25049;-74
2022/04/23 07:03:20;;;;;;;33.53;26.40;;;12.00;68.80;;;;;;5024076;28;25113;-69
2022/04/23 07:05:46;;;;;;;33.58;27.42;;;12.00;66.60;;;;;;5035659;28;25081;-68
2022/04/23 07:08:12;;;;;;;33.28;27.25;;;12.00;64.90;;;;;;5032416;28;25094;-73
2022/04/23 07:10:38;;;;;;;32.70;26.35;;;12.00;63.80;;;;;;5034084;28;25061;-72
2022/04/23 07:13:04;;;;;;;35.35;26.75;;;12.10;61.90;;;;;;5032632;28;25075;-75
2022/04/23 07:15:30;;;;;;;33.00;26.40;;;12.20;63.40;;;;;;5032369;28;25086;-74
2022/04/23 07:17:57;;;;;;;31.85;26.17;;;12.40;61.10;;;;;;5032796;28;25061;-72
2022/04/23 07:20:22;;;;;;;31.05;25.95;;;12.40;59.30;;;;;;5031183;28;25067;-71
2022/04/23 07:25:34;;;;;;;33.33;26.15;;;12.60;58.50;;;;;;5032376;28;25070;-71
2022/04/23 07:28:00;;;;;;;29.77;25.15;;;12.60;57.20;;;;;;5031310;28;25083;-71
2022/04/23 07:30:27;;;;;;;29.13;24.95;;;12.80;56.70;;;;;;5030418;28;25056;-70
2022/04/23 07:32:53;;;;;;;31.20;25.17;;;13.00;53.50;;;;;;5029688;28;25085;-71
2022/04/23 07:38:19;;;;;;;31.75;25.83;;;13.20;50.70;;;;;;5029429;28;25096;-71
2022/04/23 07:40:46;;;;;;;29.35;24.58;;;13.20;50.80;;;;;;5029119;28;25063;-71
2022/04/23 07:43:14;;;;;;;31.45;24.55;;;13.20;48.90;;;;;;5028776;28;25079;-71
2022/04/23 07:45:41;;;;;;;30.77;25.95;;;13.20;47.60;;;;;;5030896;28;25107;-70
2022/04/23 07:48:08;;;;;;;33.78;26.88;;;13.40;49.40;;;;;;5026535;28;25074;-72
2022/04/23 07:50:34;;;;;;;32.60;24.95;;;13.50;47.20;;;;;;5012368;28;25058;-71
2022/04/23 07:53:00;;;;;;;30.92;25.13;;;13.40;49.70;;;;;;5012739;28;25071;-70
2022/04/23 07:55:26;;;;;;;31.45;25.67;;;13.50;49.20;;;;;;5010838;28;25105;-72
2022/04/23 07:57:51;;;;;;;27.27;23.33;;;13.70;49.80;;;;;;5009538;28;25156;-72
2022/04/23 08:00:17;;;;;;;28.65;23.48;;;13.60;45.80;;;;;;5011288;28;25045;-71
2022/04/23 08:02:43;;;;;;;27.38;24.08;;;13.60;46.50;;;;;;5013093;28;25093;-69
2022/04/23 08:05:12;;;;;;;30.45;23.67;;;13.70;46.70;;;;;;5009178;28;25093;-70
2022/04/23 08:07:39;;;;;;;32.05;25.17;;;13.90;46.40;;;;;;5010670;28;25080;-70
2022/04/23 08:10:06;;;;;;;27.23;22.90;;;14.10;42.80;;;;;;5010337;28;25066;-73
2022/04/23 08:12:35;;;;;;;27.52;22.90;;;14.30;40.80;;;;;;5010797;28;25145;-70
2022/04/23 08:15:01;;;;;;;28.75;23.13;;;14.00;38.50;;;;;;5010790;28;25066;-69
2022/04/23 08:17:26;;;;;;;25.88;21.85;;;14.10;40.50;;;;;;5011625;28;25073;-72
2022/04/23 08:19:52;;;;;;;26.48;22.88;;;14.50;39.70;;;;;;5012054;28;25049;-71
2022/04/23 08:22:18;;;;;;;25.40;22.17;;;14.60;37.90;;;;;;5012784;28;25089;-72
2022/04/23 08:24:43;;;;;;;30.23;22.33;;;14.30;35.70;;;;;;5010098;28;25102;-70
2022/04/23 08:27:09;;;;;;;26.65;22.13;;;14.30;37.20;;;;;;5012656;28;25136;-71
2022/04/23 08:32:19;;;;;;;26.55;21.17;;;14.70;34.30;;;;;;5009498;28;25079;-69
2022/04/23 08:34:45;;;;;;;24.90;22.10;;;14.90;32.10;;;;;;5010924;28;25138;-68
2022/04/23 08:37:12;;;;;;;26.70;21.17;;;15.00;31.60;;;;;;5010239;28;25062;-70
2022/04/23 08:39:39;;;;;;;24.60;22.00;;;15.20;31.40;;;;;;5006531;28;25059;-74
2022/04/23 08:42:06;;;;;;;26.05;22.25;;;15.20;28.40;;;;;;5008328;28;25073;-72
2022/04/23 08:44:32;;;;;;;26.77;22.45;;;15.00;30.60;;;;;;5008846;28;25154;-70
2022/04/23 08:46:58;;;;;;;25.23;20.58;;;15.00;29.70;;;;;;5009365;28;25087;-71
2022/04/23 08:49:29;;;;;;;26.35;22.10;;;14.80;29.10;;;;;;5006033;28;25160;-69
2022/04/23 08:52:01;;;;;;;28.60;22.00;;;14.70;29.60;;;;;;5009627;28;25059;-73
2022/04/23 08:54:27;;;;;;;25.73;21.98;;;14.80;29.20;;;;;;5009197;28;25147;-71
2022/04/23 08:56:53;;;;;;;27.85;22.30;;;14.90;29.30;;;;;;5015624;28;25076;-71
2022/04/23 08:59:20;;;;;;;27.75;21.80;;;14.80;28.70;;;;;;5017015;28;25087;-74
2022/04/23 09:01:46;;;;;;;26.20;21.58;;;15.00;29.10;;;;;;5017407;28;25051;-73
2022/04/23 09:04:12;;;;;;;23.80;21.02;;;15.20;28.40;;;;;;5017955;28;25056;-72
2022/04/23 09:06:42;;;;;;;26.27;23.10;;;15.10;29.20;;;;;;5016121;28;25056;-71
2022/04/23 09:09:20;;;;;;;25.92;22.08;;;15.40;27.40;;;;;;5026803;28;25060;-70
2022/04/23 09:11:57;;;;;;;26.85;21.98;;;15.20;28.40;;;;;;5028975;28;25052;-74
2022/04/23 09:14:33;;;;;;;25.48;20.73;;;15.30;26.80;;;;;;5030761;28;25073;-72
2022/04/23 09:25:15;;;;;;;28.13;21.92;;;15.70;25.60;;;;;;5011131;28;25048;-70
2022/04/23 09:27:43;;;;;;;32.58;22.20;;;15.20;26.90;;;;;;5009996;28;25129;-70
2022/04/23 09:30:13;;;;;;;25.30;22.33;;;15.50;26.80;;;;;;5009827;28;25071;-70
2022/04/23 09:32:56;;;;;;;27.05;22.88;;;15.60;26.60;;;;;;5017845;28;25157;-70
2022/04/23 09:35:22;;;;;;;29.70;22.67;;;15.20;27.70;;;;;;5019427;28;25041;-70
2022/04/23 09:40:32;;;;;;;28.65;23.48;;;15.80;25.60;;;;;;5022764;28;25052;-74
2022/04/23 09:43:05;;;;;;;30.85;21.98;;;15.90;25.50;;;;;;5019063;28;25057;-75
2022/04/23 09:45:33;;;;;;;27.63;24.20;;;16.00;24.10;;;;;;5021578;28;25075;-73
2022/04/23 09:48:10;;;;;;;28.52;23.77;;;15.90;24.80;;;;;;5021153;28;25102;-71
2022/04/23 09:50:37;;;;;;;28.33;23.13;;;15.70;25.50;;;;;;5019384;28;25095;-71
2022/04/23 09:53:12;;;;;;;31.23;23.10;;;15.60;26.60;;;;;;5014124;28;25104;-69
2022/04/23 09:55:38;;;;;;;28.20;24.55;;;15.60;26.70;;;;;;5018800;28;25062;-76
2022/04/23 09:58:08;;;;;;;32.25;24.80;;;15.40;25.90;;;;;;5016668;28;25051;-73
2022/04/23 10:00:44;;;;;;;32.58;23.80;;;15.50;27.30;;;;;;5010628;28;25063;-73
2022/04/23 10:03:11;;;;;;;27.73;24.10;;;16.10;26.40;;;;;;5009586;28;25150;-75
2022/04/23 10:05:39;;;;;;;27.83;24.80;;;16.10;25.20;;;;;;5015607;28;25063;-70
2022/04/23 10:08:13;;;;;;;29.60;25.17;;;15.60;26.40;;;;;;5012470;28;25101;-69
2022/04/23 10:10:42;;;;;;;34.17;25.35;;;15.80;26.20;;;;;;5007912;28;25058;-72
2022/04/23 10:13:10;;;;;;;29.83;25.45;;;15.70;25.50;;;;;;5007196;28;25063;-74
2022/04/23 10:15:37;;;;;;;27.55;23.35;;;15.70;25.50;;;;;;5011277;28;25141;-70
2022/04/23 10:18:07;;;;;;;33.28;24.83;;;16.00;25.80;;;;;;5033833;28;25062;-72
2022/04/23 10:20:34;;;;;;;32.10;25.90;;;16.10;24.00;;;;;;5014666;28;25076;-75
2022/04/23 10:23:27;;;;;;;30.88;25.23;;;16.10;25.00;;;;;;5018783;28;25073;-72
2022/04/23 10:26:29;;;;;;;27.27;23.48;;;16.50;24.60;;;;;;5018662;28;25069;-69
2022/04/23 10:28:56;;;;;;;27.63;24.70;;;16.60;22.90;;;;;;5017515;28;25099;-73
2022/04/23 10:31:21;;;;;;;27.30;23.67;;;16.50;22.70;;;;;;5011972;28;25130;-71
2022/04/23 10:33:54;;;;;;;29.50;24.92;;;16.70;21.80;;;;;;5023556;28;25103;-70
2022/04/23 10:36:22;;;;;;;35.25;26.55;;;16.30;22.20;;;;;;5006731;28;25061;-72
2022/04/23 10:39:08;;;;;;;30.63;25.33;;;16.30;21.30;;;;;;5007743;28;25064;-72
2022/04/23 10:41:34;;;;;;;29.15;24.98;;;16.10;22.20;;;;;;5006396;28;25061;-70
2022/04/23 10:44:04;;;;;;;28.98;24.60;;;16.50;22.20;;;;;;5005063;28;25100;-72
2022/04/23 10:46:42;;;;;;;30.95;23.80;;;16.90;20.80;;;;;;5006811;28;25065;-72
2022/04/23 10:49:19;;;;;;;31.13;24.40;;;17.20;20.60;;;;;;5007148;28;25076;-70
2022/04/23 10:51:51;;;;;;;28.95;23.88;;;17.00;18.60;;;;;;5005591;28;25099;-69
2022/04/23 10:54:20;;;;;;;30.27;24.15;;;17.20;19.90;;;;;;5005077;28;25059;-70
2022/04/23 10:56:55;;;;;;;29.05;24.48;;;17.50;17.30;;;;;;5004968;28;25057;-71
2022/04/23 10:59:53;;;;;;;33.20;25.02;;;17.40;16.70;;;;;;5004866;28;25062;-70
2022/04/23 11:02:19;;;;;;;29.20;24.30;;;17.00;17.10;;;;;;4985768;28;25073;-70
2022/04/23 11:13:27;;;;;;;29.05;24.15;;;17.80;15.80;;;;;;5005095;28;25158;-72
2022/04/23 11:16:18;;;;;;;31.65;24.23;;;18.10;15.20;;;;;;5006010;28;25065;-71
2022/04/23 11:18:46;;;;;;;27.85;23.83;;;17.80;14.40;;;;;;5007569;28;25142;-74
2022/04/23 11:21:14;;;;;;;32.42;24.13;;;18.00;14.20;;;;;;5008467;28;25126;-71
2022/04/23 11:23:44;;;;;;;28.33;24.95;;;18.10;13.70;;;;;;5007176;28;25070;-68
2022/04/23 11:26:12;;;;;;;32.22;26.10;;;18.20;12.20;;;;;;5004996;28;25145;-68
2022/04/23 11:28:39;;;;;;;28.63;23.13;;;18.20;11.40;;;;;;5004041;28;25044;-69
2022/04/23 11:31:09;;;;;;;27.38;24.48;;;18.40;11.00;;;;;;5007880;28;25062;-71
2022/04/23 11:33:36;;;;;;;30.83;25.77;;;18.60;11.20;;;;;;5007783;28;25054;-71
2022/04/23 11:36:02;;;;;;;62.35;35.53;;;18.20;10.20;;;;;;5009508;28;25052;-70
2022/04/23 11:38:28;;;;;;;60.53;36.08;;;18.20;11.50;;;;;;5009747;28;25103;-71
2022/04/23 11:40:54;;;;;;;56.55;32.88;;;18.20;13.40;;;;;;5012613;28;25132;-70
2022/04/23 11:43:34;;;;;;;74.60;39.42;;;18.40;13.00;;;;;;5014577;28;25089;-73
2022/04/23 11:46:06;;;;;;;49.88;29.85;;;18.00;15.20;;;;;;5018138;28;25074;-70
2022/04/23 11:48:46;;;;;;;29.08;25.38;;;18.60;14.70;;;;;;5033415;28;25085;-73
2022/04/23 11:51:12;;;;;;;31.20;27.65;;;18.80;11.80;;;;;;5034379;28;25076;-76
2022/04/23 11:53:58;;;;;;;80.07;37.30;;;18.70;12.40;;;;;;5034056;28;25064;-72
2022/04/23 11:56:33;;;;;;;70.95;36.20;;;18.30;14.00;;;;;;5031166;28;25051;-73
2022/04/23 11:59:05;;;;;;;47.70;31.48;;;18.60;13.80;;;;;;5014142;28;25062;-69
2022/04/23 12:01:31;;;;;;;100.85;45.78;;;18.60;15.00;;;;;;5011024;28;25094;-71
2022/04/23 12:03:58;;;;;;;30.25;26.88;;;19.20;13.80;;;;;;5008317;28;25065;-70
2022/04/23 12:06:24;;;;;;;105.53;50.10;;;19.10;9.50;;;;;;5008746;28;25083;-70
2022/04/23 12:08:51;;;;;;;64.15;35.13;;;18.70;13.60;;;;;;5009449;28;25433;-68
2022/04/23 12:11:26;;;;;;;42.53;27.70;;;18.60;13.70;;;;;;5007856;28;25166;-73
2022/04/23 12:13:52;;;;;;;40.83;28.10;;;18.40;12.20;;;;;;5007276;28;25106;-68
2022/04/23 12:16:31;;;;;;;37.15;27.85;;;18.30;14.80;;;;;;5008250;28;25101;-71
2022/04/23 12:18:59;;;;;;;56.72;33.08;;;18.00;13.20;;;;;;5007627;28;25118;-72
2022/04/23 12:21:24;;;;;;;54.33;34.63;;;18.00;14.50;;;;;;5004402;28;25107;-70
2022/04/23 12:23:50;;;;;;;36.40;27.55;;;18.00;14.90;;;;;;5006757;28;25109;-71
2022/04/23 12:26:19;;;;;;;41.78;29.00;;;18.30;12.10;;;;;;5006823;28;25090;-69
2022/04/23 12:42:30;;;;;;;70.47;36.95;;;18.90;11.30;;;;;;5006611;28;25087;-71
2022/04/23 12:44:55;;;;;;;38.05;27.98;;;19.20;11.80;;;;;;5005621;28;25063;-70
2022/04/23 12:47:35;;;;;;;37.63;28.23;;;19.10;9.60;;;;;;5008635;28;25063;-73
2022/04/23 12:50:03;;;;;;;46.28;30.27;;;18.80;11.60;;;;;;5007163;28;25094;-70
2022/04/23 12:52:44;;;;;;;39.45;25.70;;;18.60;11.20;;;;;;5004673;28;25074;-73
2022/04/23 12:55:14;;;;;;;32.05;26.50;;;18.80;11.00;;;;;;5006067;28;25091;-71
2022/04/23 12:57:42;;;;;;;30.27;24.42;;;18.80;10.70;;;;;;5005945;28;25048;-71
2022/04/23 13:00:09;;;;;;;95.65;39.53;;;19.10;10.00;;;;;;5007685;28;25109;-71
2022/04/23 13:02:36;;;;;;;146.02;55.30;;;18.50;13.20;;;;;;5006741;28;25133;-68
2022/04/23 13:05:03;;;;;;;113.95;52.92;;;18.40;26.40;;;;;;5007028;28;25111;-70
2022/04/23 13:10:12;;;;;;;34.30;25.85;;;17.30;26.30;;;;;;5006960;28;25149;-69
2022/04/23 13:12:38;;;;;;;31.95;26.88;;;17.70;21.80;;;;;;5007321;28;25095;-72
2022/04/23 13:15:04;;;;;;;33.33;25.35;;;17.90;16.80;;;;;;5007193;28;25066;-70